Saba, Netherlands Antilles
Current Conditions -  °F | °C
As of 4:00 AM on Thursday 27 Nov 2014 (Local Time) from TNCM Reporting Station
Few Clouds Few Clouds  
Wind Chill: 79°   Ceiling: Unl
Heat Index: 81°   Visibility: 6mi
Dew Point: 66°   Wind: 10mph
Humidity: 65%   Direction: 70°ENE
Pressure: 29.94"   Gusts: NA
Location:  17.64°N, 63.23°W
Report Text: TNCM 270800Z 07009KT 040V100 9999 FEW023 26/19 Q1014 A2994
Loading
Personal Weather Stations






























Interactive Weather Map New forecast layout! Learn more

10-Day Weather Forecast

Advertisements
Track Severe Weather on mobile